Time;durP1;ratioP1;P1;durP2;ratioP2;P2;SDS_P1;SDS_P2;PMS_P1;PMS_P2;Temp;Humidity;BMP_temperature;BMP_pressure;BME280_temperature;BME280_humidity;BME280_pressure;Samples;Min_cycle;Max_cycle;Signal;HPM_P1;HPM_P2
2022/05/23 00:01:38;;;;;;;8.80;3.25;;;;;;;5.28;55.45;98401.88;5145288;27;20043;-52
2022/05/23 00:04:04;;;;;;;6.28;3.17;;;;;;;5.08;55.60;98375.91;5149070;27;20046;-49
2022/05/23 00:09:22;;;;;;;7.22;2.78;;;;;;;5.19;55.61;98396.16;5138990;27;20110;-49
2022/05/23 00:11:48;;;;;;;5.65;3.20;;;;;;;5.16;56.04;98402.28;5152532;27;20046;-50
2022/05/23 00:14:15;;;;;;;7.18;3.05;;;;;;;5.10;55.88;98405.88;5141178;27;20038;-52
2022/05/23 00:16:44;;;;;;;7.30;2.90;;;;;;;5.08;56.16;98404.25;5097384;27;20099;-48
2022/05/23 00:19:11;;;;;;;6.22;3.03;;;;;;;5.03;56.48;98400.97;5140627;27;20034;-51
2022/05/23 00:21:41;;;;;;;8.38;2.92;;;;;;;4.99;56.54;98397.66;5133135;27;20130;-51
2022/05/23 00:24:08;;;;;;;9.82;2.92;;;;;;;4.89;56.27;98385.13;5133980;27;20122;-48
2022/05/23 00:26:35;;;;;;;5.05;2.60;;;;;;;4.81;56.53;98390.56;5148664;27;20043;-49
2022/05/23 00:29:00;;;;;;;5.45;2.47;;;;;;;4.82;56.87;98392.22;5136093;27;20526;-51
2022/05/23 00:31:26;;;;;;;6.20;3.05;;;;;;;4.90;57.13;98415.16;5132668;27;20058;-51
2022/05/23 00:36:37;;;;;;;4.82;2.60;;;;;;;4.83;57.10;98391.31;5138075;27;20469;-50
2022/05/23 00:39:03;;;;;;;7.63;2.70;;;;;;;4.91;56.57;98414.25;5137914;27;20039;-50
2022/05/23 00:44:31;;;;;;;5.80;2.72;;;;;;;4.91;57.07;98420.25;5123762;27;20421;-49
2022/05/23 00:47:17;;;;;;;4.75;2.28;;;;;;;4.91;57.02;98414.25;5130822;27;20428;-47
2022/05/23 00:49:43;;;;;;;6.35;2.50;;;;;;;4.91;56.96;98416.84;5115915;27;20056;-48
2022/05/23 00:52:27;;;;;;;7.32;2.67;;;;;;;4.88;56.88;98414.34;5147117;27;20051;-49
2022/05/23 00:54:55;;;;;;;7.35;2.80;;;;;;;4.87;57.11;98418.66;5147376;27;20035;-51
2022/05/23 00:57:25;;;;;;;7.43;2.70;;;;;;;4.84;57.36;98418.75;5117028;27;20151;-50
2022/05/23 00:59:52;;;;;;;5.85;2.70;;;;;;;4.85;57.70;98419.59;5130692;27;20058;-50
2022/05/23 01:02:20;;;;;;;5.13;2.88;;;;;;;4.81;57.84;98425.75;5134056;27;20091;-48
2022/05/23 01:04:47;;;;;;;4.78;2.20;;;;;;;4.82;57.55;98417.94;5129299;27;20035;-50
2022/05/23 01:07:13;;;;;;;5.82;2.42;;;;;;;4.81;57.41;98423.16;5116918;27;20043;-50
2022/05/23 01:09:39;;;;;;;13.25;3.03;;;;;;;4.68;57.70;98405.53;5142569;27;20054;-50
2022/05/23 01:12:05;;;;;;;7.38;2.72;;;;;;;4.80;57.39;98422.31;5114003;27;20085;-50
2022/05/23 01:14:49;;;;;;;6.90;2.53;;;;;;;4.78;57.54;98433.56;5134135;27;20038;-53
2022/05/23 01:17:17;;;;;;;6.70;2.40;;;;;;;4.73;57.22;98427.69;5132461;27;20044;-47
2022/05/23 01:19:43;;;;;;;5.63;2.38;;;;;;;4.67;57.60;98415.84;5096302;27;20042;-47
2022/05/23 01:22:32;;;;;;;6.03;2.47;;;;;;;4.77;57.44;98424.97;5133316;27;20509;-48
2022/05/23 01:25:43;;;;;;;5.20;2.28;;;;;;;4.80;57.55;98427.47;5115398;27;20055;-49
2022/05/23 01:28:11;;;;;;;5.90;2.35;;;;;;;4.77;57.66;98424.97;5123223;27;20054;-51
2022/05/23 01:30:40;;;;;;;5.10;2.42;;;;;;;4.78;57.86;98428.41;5122140;27;20043;-49
2022/05/23 01:33:14;;;;;;;4.45;2.20;;;;;;;4.80;58.09;98426.63;5137294;27;20034;-51
2022/05/23 01:35:41;;;;;;;5.13;2.30;;;;;;;4.72;58.08;98413.13;5148744;27;20059;-49
2022/05/23 01:38:09;;;;;;;8.25;2.33;;;;;;;4.71;57.86;98409.72;5137759;27;20133;-51
2022/05/23 01:40:45;;;;;;;5.72;2.10;;;;;;;4.79;57.44;98420.63;5141558;27;20122;-51
2022/05/23 01:43:17;;;;;;;4.70;1.95;;;;;;;4.80;57.55;98426.63;5117603;27;20509;-51
2022/05/23 01:45:43;;;;;;;5.78;2.45;;;;;;;4.79;57.44;98423.22;5123054;27;20046;-51
2022/05/23 01:48:25;;;;;;;4.53;2.03;;;;;;;4.81;57.23;98421.44;5118228;27;20035;-48
2022/05/23 01:50:50;;;;;;;7.40;2.60;;;;;;;4.81;57.31;98418.03;5128241;27;20030;-48
2022/05/23 01:53:16;;;;;;;6.15;2.13;;;;;;;4.79;57.30;98404.34;5150714;27;20485;-47
2022/05/23 01:55:58;;;;;;;3.83;1.90;;;;;;;4.84;57.43;98407.63;5118513;27;20050;-49
2022/05/23 02:01:25;;;;;;;4.85;2.28;;;;;;;4.87;57.27;98412.66;5127870;27;20039;-49
2022/05/23 02:03:56;;;;;;;4.88;1.98;;;;;;;4.89;57.10;98424.59;5149693;27;20049;-52
2022/05/23 02:06:24;;;;;;;5.03;2.05;;;;;;;4.89;57.46;98421.19;5145570;27;20051;-48
2022/05/23 02:08:55;;;;;;;7.05;2.17;;;;;;;4.89;57.33;98423.75;5137948;27;20586;-49
2022/05/23 02:11:27;;;;;;;6.93;2.55;;;;;;;4.78;57.04;98407.81;5124678;27;20043;-51
2022/05/23 02:13:52;;;;;;;5.50;2.13;;;;;;;4.86;57.44;98416.16;5118099;27;20039;-48
2022/05/23 02:16:27;;;;;;;4.15;2.00;;;;;;;4.82;57.13;98412.81;5117654;27;20065;-51
2022/05/23 02:18:59;;;;;;;5.93;1.80;;;;;;;4.87;57.05;98412.66;5119886;27;20162;-51
2022/05/23 02:21:25;;;;;;;4.45;2.20;;;;;;;4.94;57.38;98421.88;5136107;27;20035;-53
2022/05/23 02:23:51;;;;;;;3.22;1.75;;;;;;;4.98;57.44;98431.19;5152201;27;20049;-49
2022/05/23 02:26:17;;;;;;;4.13;2.00;;;;;;;4.98;57.59;98424.31;5149087;27;20038;-53
2022/05/23 02:28:55;;;;;;;2.88;1.90;;;;;;;5.05;57.11;98435.25;5118651;27;20417;-50
2022/05/23 02:31:27;;;;;;;6.13;1.60;;;;;;;5.09;57.18;98427.38;5127586;27;20118;-52
2022/05/23 02:34:11;;;;;;;3.55;1.95;;;;;;;5.13;57.60;98426.38;5120281;27;20069;-47
2022/05/23 02:36:42;;;;;;;3.90;1.98;;;;;;;5.19;56.81;98429.66;5102683;27;20176;-48
2022/05/23 02:39:10;;;;;;;5.10;2.15;;;;;;;5.20;56.74;98408.16;5129874;27;20050;-48
2022/05/23 02:41:35;;;;;;;5.30;2.13;;;;;;;5.26;56.92;98423.41;5148519;27;20173;-52
2022/05/23 02:44:04;;;;;;;3.95;1.77;;;;;;;5.24;56.85;98410.56;5118995;27;20043;-50
2022/05/23 02:46:30;;;;;;;3.08;1.70;;;;;;;5.32;56.13;98415.47;5136158;27;20039;-48
2022/05/23 02:49:03;;;;;;;4.55;1.90;;;;;;;5.43;56.05;98429.69;5135941;27;20078;-50
2022/05/23 02:51:29;;;;;;;5.43;2.03;;;;;;;5.32;56.03;98400.03;5124428;27;20046;-50
2022/05/23 02:53:57;;;;;;;6.95;2.35;;;;;;;5.51;55.77;98425.13;5116127;27;20035;-50
2022/05/23 02:56:28;;;;;;;6.82;2.53;;;;;;;5.58;55.01;98427.47;5115811;27;20125;-47
2022/05/23 02:58:53;;;;;;;6.10;2.00;;;;;;;5.61;55.18;98430.78;5134113;27;20130;-50
2022/05/23 03:01:19;;;;;;;6.20;2.25;;;;;;;5.69;54.48;98425.38;5130282;27;20043;-48
2022/05/23 03:03:47;;;;;;;5.20;2.30;;;;;;;5.65;54.78;98403.19;5099640;27;20481;-51
2022/05/23 03:06:13;;;;;;;9.45;2.88;;;;;;;5.85;54.42;98424.78;5128335;27;20549;-51
2022/05/23 03:08:39;;;;;;;6.85;2.78;;;;;;;5.77;53.69;98403.56;5148292;27;20042;-53
2022/05/23 03:11:08;;;;;;;7.05;2.65;;;;;;;5.97;53.24;98426.09;5145944;27;20034;-49
2022/05/23 03:13:37;;;;;;;7.63;3.33;;;;;;;6.05;53.67;98426.69;5098673;27;20035;-48
2022/05/23 03:16:11;;;;;;;9.73;3.88;;;;;;;6.15;52.94;98438.34;5144485;27;20071;-49
2022/05/23 03:18:40;;;;;;;6.57;2.83;;;;;;;6.23;52.39;98438.06;5109188;27;20043;-49
2022/05/23 03:21:09;;;;;;;6.07;2.90;;;;;;;6.28;52.95;98438.75;5149864;27;20050;-53
2022/05/23 03:29:09;;;;;;;6.72;3.45;;;;;;;6.42;51.81;98435.66;5152543;27;20125;-51
2022/05/23 03:31:38;;;;;;;6.68;3.22;;;;;;;6.45;51.88;98440.69;5134726;27;20168;-48
2022/05/23 03:34:06;;;;;;;6.20;3.17;;;;;;;6.47;52.09;98433.72;5131715;27;20027;-50
2022/05/23 03:36:32;;;;;;;8.63;3.80;;;;;;;6.38;51.60;98422.84;5116252;27;20506;-53
2022/05/23 03:38:58;;;;;;;7.97;3.30;;;;;;;6.52;51.57;98429.22;5116209;27;20816;-52
2022/05/23 03:41:23;;;;;;;6.05;3.50;;;;;;;6.52;51.63;98424.06;5138112;27;20435;-51
2022/05/23 03:43:50;;;;;;;7.60;3.05;;;;;;;6.57;51.44;98429.91;5125594;27;20050;-51
2022/05/23 03:46:16;;;;;;;7.35;3.25;;;;;;;6.58;51.22;98416.09;5148041;27;20125;-51
2022/05/23 03:48:42;;;;;;;6.07;3.50;;;;;;;6.65;50.72;98422.69;5117792;27;20167;-48
2022/05/23 03:51:10;;;;;;;5.13;3.20;;;;;;;6.67;50.92;98429.50;5118712;27;20047;-51
2022/05/23 03:53:36;;;;;;;10.27;3.45;;;;;;;6.67;51.21;98424.31;5132009;27;20168;-50
2022/05/23 03:56:05;;;;;;;10.38;3.50;;;;;;;6.71;51.31;98420.72;5123522;27;20076;-48
2022/05/23 03:58:37;;;;;;;7.20;3.17;;;;;;;6.77;50.58;98427.38;5132499;27;20039;-50
2022/05/23 04:01:25;;;;;;;10.95;3.15;;;;;;;6.79;50.56;98429.03;5125172;27;20510;-49
2022/05/23 04:03:57;;;;;;;6.18;3.08;;;;;;;6.84;50.67;98425.41;5134512;27;20038;-51
2022/05/23 04:06:25;;;;;;;7.55;2.83;;;;;;;6.88;50.46;98420.06;5125279;27;20066;-49
2022/05/23 04:08:56;;;;;;;7.57;3.85;;;;;;;6.92;50.61;98423.34;5150672;27;20198;-49
2022/05/23 04:11:22;;;;;;;8.50;3.80;;;;;;;7.01;50.58;98416.09;5144766;27;20133;-49
2022/05/23 04:13:48;;;;;;;22.10;4.68;;;;;;;7.02;50.71;98422.91;5126031;27;20161;-53
2022/05/23 04:16:13;;;;;;;6.07;3.10;;;;;;;7.07;50.36;98425.31;5116880;27;20418;-49
2022/05/23 04:18:43;;;;;;;8.38;3.38;;;;;;;7.07;50.80;98423.56;5134785;27;20080;-47
2022/05/23 04:21:10;;;;;;;8.40;3.83;;;;;;;7.01;50.37;98410.09;5120581;27;20035;-48
2022/05/23 04:23:39;;;;;;;6.60;3.30;;;;;;;7.23;50.54;98419.47;5112451;27;20463;-52
2022/05/23 04:26:09;;;;;;;7.72;3.25;;;;;;;7.33;50.44;98417.34;5120343;27;20171;-49
2022/05/23 04:28:39;;;;;;;12.52;3.67;;;;;;;7.33;50.48;98404.41;5111060;27;20537;-54
2022/05/23 04:31:06;;;;;;;8.20;3.88;;;;;;;7.54;49.94;98413.84;5112544;27;20035;-51
2022/05/23 04:36:36;;;;;;;39.78;4.90;;;;;;;8.09;48.83;98414.91;5115281;27;20063;-46
2022/05/23 04:39:01;;;;;;;92.55;8.68;;;;;;;8.38;48.45;98417.94;5096897;27;20119;-51
2022/05/23 04:41:28;;;;;;;6.38;3.08;;;;;;;8.63;47.77;98415.91;5128562;27;20518;-50
2022/05/23 04:43:58;;;;;;;6.80;2.45;;;;;;;8.88;47.15;98416.44;5134089;27;20046;-48
2022/05/23 04:46:26;;;;;;;8.27;2.95;;;;;;;9.03;46.84;98403.66;5125840;27;20042;-49
2022/05/23 04:51:57;;;;;;;19.05;4.18;;;;;;;9.52;45.71;98415.03;5131177;27;20129;-46
2022/05/23 04:54:32;;;;;;;5.38;2.28;;;;;;;9.71;44.99;98408.00;5112053;27;20038;-50
2022/05/23 04:57:00;;;;;;;3.40;2.20;;;;;;;9.93;44.18;98410.31;5118221;27;20046;-51
2022/05/23 04:59:32;;;;;;;7.20;3.00;;;;;;;10.17;43.93;98416.84;5133371;27;20049;-51
2022/05/23 05:02:01;;;;;;;4.80;2.53;;;;;;;10.30;44.38;98417.88;5143615;27;20039;-48
2022/05/23 05:04:28;;;;;;;5.05;2.20;;;;;;;10.05;44.24;98392.34;5132167;27;20154;-48
2022/05/23 05:06:54;;;;;;;6.78;2.85;;;;;;;9.92;43.84;98414.69;5138830;27;20038;-50
2022/05/23 05:09:20;;;;;;;8.75;4.43;;;;;;;9.77;44.30;98405.09;5156604;27;20046;-50
2022/05/23 05:11:47;;;;;;;4.22;2.70;;;;;;;9.74;44.03;98413.00;5135236;27;20509;-51
2022/05/23 05:14:19;;;;;;;6.45;2.67;;;;;;;9.69;44.23;98413.25;5122479;27;20117;-49
2022/05/23 05:16:50;;;;;;;8.13;2.88;;;;;;;9.60;43.85;98398.16;5138559;27;20517;-50
2022/05/23 05:19:18;;;;;;;4.60;2.38;;;;;;;9.61;43.99;98399.84;5136557;27;20043;-49
2022/05/23 05:21:53;;;;;;;4.78;2.50;;;;;;;9.54;43.97;98397.63;5141719;27;20041;-50
2022/05/23 05:24:32;;;;;;;4.85;2.70;;;;;;;9.59;44.14;98390.44;5145231;27;20034;-49
2022/05/23 05:27:18;;;;;;;3.67;2.50;;;;;;;9.62;44.02;98385.97;5156629;27;20050;-49
2022/05/23 05:29:44;;;;;;;4.63;2.42;;;;;;;9.67;43.94;98386.56;5138467;27;20041;-48
2022/05/23 05:32:18;;;;;;;7.40;2.97;;;;;;;9.75;43.56;98391.34;5150763;27;20046;-50
2022/05/23 05:34:46;;;;;;;8.20;3.38;;;;;;;9.84;43.11;98392.63;5131135;27;20035;-48
2022/05/23 05:37:21;;;;;;;3.40;1.92;;;;;;;9.86;42.80;98390.78;5154094;27;20585;-47
2022/05/23 05:39:47;;;;;;;5.13;2.17;;;;;;;9.89;42.28;98380.25;5155891;27;20043;-48
2022/05/23 05:42:16;;;;;;;5.40;2.40;;;;;;;9.76;42.07;98385.22;5121104;27;20035;-49
2022/05/23 05:44:47;;;;;;;7.40;2.58;;;;;;;9.90;42.37;98377.56;5157586;27;20095;-50
2022/05/23 05:47:15;;;;;;;7.82;2.20;;;;;;;10.08;41.44;98357.59;5105797;27;20045;-50
2022/05/23 05:49:47;;;;;;;5.32;2.17;;;;;;;10.51;41.72;98366.53;5124671;27;20066;-48
2022/05/23 05:52:15;;;;;;;2.47;1.98;;;;;;;11.01;40.91;98366.28;5153074;27;20043;-49
2022/05/23 05:54:52;;;;;;;11.23;2.20;;;;;;;11.34;39.91;98364.34;5124665;27;20510;-50
2022/05/23 05:57:18;;;;;;;3.60;1.90;;;;;;;11.65;39.24;98368.56;5119436;27;20096;-48
2022/05/23 05:59:46;;;;;;;3.78;1.50;;;;;;;11.74;38.11;98370.66;5148668;27;20030;-50
2022/05/23 06:02:12;;;;;;;3.08;1.98;;;;;;;11.82;37.68;98346.78;5114757;27;20053;-49
2022/05/23 06:04:40;;;;;;;4.05;1.88;;;;;;;12.11;37.45;98363.22;5125522;27;20059;-49
2022/05/23 06:13:07;;;;;;;2.50;1.60;;;;;;;12.85;35.55;98352.41;5130147;27;20027;-53
2022/05/23 06:15:56;;;;;;;4.78;1.50;;;;;;;13.17;35.44;98355.56;5120947;27;20047;-55
2022/05/23 06:18:24;;;;;;;3.65;1.67;;;;;;;13.52;34.97;98362.72;5128467;27;20043;-50
2022/05/23 06:20:52;;;;;;;4.90;1.83;;;;;;;13.80;34.38;98345.19;5139187;27;20049;-52
2022/05/23 06:23:18;;;;;;;11.07;1.95;;;;;;;14.31;33.06;98352.00;5117163;27;20040;-45
2022/05/23 06:25:55;;;;;;;3.58;1.73;;;;;;;14.91;31.71;98345.97;5116620;27;20035;-48
2022/05/23 06:28:45;;;;;;;5.13;1.90;;;;;;;15.29;30.74;98340.47;5115811;27;20039;-54
2022/05/23 06:31:11;;;;;;;2.42;1.80;;;;;;;15.50;30.70;98335.41;5128507;27;20042;-50
2022/05/23 06:33:38;;;;;;;5.88;1.90;;;;;;;15.93;30.20;98330.38;5130955;27;20031;-54
2022/05/23 06:36:10;;;;;;;4.10;2.10;;;;;;;16.58;29.28;98333.06;5118975;27;20085;-55
2022/05/23 06:38:38;;;;;;;3.55;2.00;;;;;;;17.62;27.75;98333.22;5138124;27;20054;-51
2022/05/23 06:41:42;;;;;;;2.28;1.45;;;;;;;18.70;25.42;98327.28;5070042;28;20117;-51
2022/05/23 06:44:34;;;;;;;2.67;1.33;;;;;;;19.20;25.17;98314.00;5064807;28;20044;-53
2022/05/23 06:47:18;;;;;;;4.75;1.55;;;;;;;20.73;23.54;98331.91;5107003;27;20150;-49
2022/05/23 06:50:13;;;;;;;4.18;1.75;;;;;;;21.53;22.83;98336.28;5108346;27;20043;-50
2022/05/23 06:53:05;;;;;;;3.15;1.60;;;;;;;21.88;22.32;98327.41;5122627;27;20043;-50
2022/05/23 06:55:42;;;;;;;3.38;1.50;;;;;;;21.94;21.70;98326.81;5114740;27;20047;-50
2022/05/23 06:58:10;;;;;;;6.97;1.80;;;;;;;22.03;21.33;98321.59;5097279;28;20039;-49
2022/05/23 07:00:36;;;;;;;2.97;1.73;;;;;;;22.22;21.29;98332.75;5112526;28;20514;-50
2022/05/23 07:03:10;;;;;;;2.67;1.75;;;;;;;22.63;20.39;98322.28;5113272;27;20054;-53
2022/05/23 07:14:13;;;;;;;3.47;2.13;;;;;;;26.74;16.34;98300.78;5117981;27;20035;-48
2022/05/23 07:16:39;;;;;;;2.10;1.80;;;;;;;27.85;15.76;98316.16;5112271;28;20051;-48
2022/05/23 07:19:07;;;;;;;6.67;1.80;;;;;;;28.69;15.08;98311.44;5111853;28;20039;-48
2022/05/23 07:21:41;;;;;;;7.60;2.22;;;;;;;29.35;14.59;98313.28;5095029;28;20067;-51
2022/05/23 07:24:13;;;;;;;6.18;1.88;;;;;;;29.56;13.72;98309.56;5127675;27;20047;-47
2022/05/23 07:26:44;;;;;;;4.75;1.63;;;;;;;29.18;13.71;98311.16;5132473;27;20039;-49
2022/05/23 07:29:12;;;;;;;5.32;1.90;;;;;;;29.24;14.02;98318.38;5131285;27;20291;-48
2022/05/23 07:31:38;;;;;;;2.28;1.67;;;;;;;29.68;13.59;98313.25;5135418;27;20038;-47
2022/05/23 07:34:04;;;;;;;3.42;1.75;;;;;;;30.44;13.58;98310.00;5129346;27;20073;-49
2022/05/23 07:36:31;;;;;;;6.10;2.00;;;;;;;31.10;13.36;98307.84;5109623;27;20043;-47
2022/05/23 07:39:02;;;;;;;9.80;2.17;;;;;;;31.03;13.09;98302.53;5128832;27;20426;-48
2022/05/23 07:41:54;;;;;;;10.55;2.10;;;;;;;31.40;12.45;98297.28;5119039;27;20137;-49
2022/05/23 07:44:23;;;;;;;4.00;2.00;;;;;;;31.75;12.63;98294.94;5128378;27;20043;-49
2022/05/23 07:46:53;;;;;;;4.10;2.07;;;;;;;32.07;12.47;98301.84;5132179;27;20506;-49
2022/05/23 07:49:19;;;;;;;;;;;;;;;32.30;12.20;98307.38;5150022;27;20288;-50
2022/05/23 07:51:58;;;;;;;5.38;2.03;;;;;;;32.40;12.00;98306.06;5128096;27;19923;-49
2022/05/23 08:02:55;;;;;;;4.25;2.40;;;;;;;33.85;11.31;98278.59;5122942;27;20460;-52
2022/05/23 08:05:24;;;;;;;5.82;2.78;;;;;;;34.13;11.02;98280.53;5147230;27;20138;-50
2022/05/23 08:07:53;;;;;;;4.35;1.92;;;;;;;34.16;11.13;98274.66;5128222;27;20040;-49
2022/05/23 08:10:20;;;;;;;8.18;1.70;;;;;;;34.14;10.65;98289.44;5129912;27;20569;-53
2022/05/23 08:12:52;;;;;;;5.13;1.92;;;;;;;33.87;10.90;98281.03;5123463;27;20046;-46
2022/05/23 08:15:20;;;;;;;11.77;2.40;;;;;;;34.11;10.92;98285.34;5139807;27;20043;-47
2022/05/23 08:17:50;;;;;;;4.35;1.90;;;;;;;33.88;10.66;98282.69;5115166;27;20047;-49
2022/05/23 08:20:25;;;;;;;4.65;2.38;;;;;;;33.24;10.98;98279.00;5126670;27;20035;-45
2022/05/23 08:22:55;;;;;;;3.80;2.13;;;;;;;33.40;11.07;98272.91;5120329;27;20081;-48
2022/05/23 08:25:29;;;;;;;4.03;2.20;;;;;;;32.77;11.03;98267.25;5122497;27;20047;-46
2022/05/23 08:27:56;;;;;;;2.65;1.77;;;;;;;32.90;11.48;98255.47;5130233;27;20115;-47
2022/05/23 08:30:24;;;;;;;3.63;2.00;;;;;;;33.29;11.09;98268.34;5131518;27;20062;-47
2022/05/23 08:32:58;;;;;;;6.93;2.47;;;;;;;33.53;11.08;98264.63;5112834;27;20418;-47
2022/05/23 08:35:26;;;;;;;6.38;2.25;;;;;;;33.84;10.92;98255.38;5123098;27;20042;-47
2022/05/23 08:37:58;;;;;;;6.13;4.35;;;;;;;34.39;10.54;98261.13;5140524;27;20046;-48
2022/05/23 08:40:54;;;;;;;7.80;2.30;;;;;;;35.04;10.27;98260.75;5113211;27;20056;-49
2022/05/23 08:43:27;;;;;;;3.97;1.70;;;;;;;35.30;10.35;98250.38;5122151;27;20035;-48
2022/05/23 08:45:56;;;;;;;4.82;2.30;;;;;;;35.52;9.87;98243.16;5128814;27;20042;-45
2022/05/23 08:48:36;;;;;;;3.17;2.20;;;;;;;35.61;10.10;98247.88;5111113;28;20502;-44
2022/05/23 08:51:17;;;;;;;5.75;2.75;;;;;;;35.81;9.77;98250.09;5109111;27;20039;-44
2022/05/23 08:54:04;;;;;;;4.05;1.90;;;;;;;35.68;9.88;98248.56;5110509;27;20046;-53
2022/05/23 08:56:57;;;;;;;4.45;2.20;;;;;;;35.79;10.07;98249.53;5107788;27;20045;-47
2022/05/23 08:59:38;;;;;;;5.43;2.20;;;;;;;36.13;9.89;98247.53;5112802;28;20498;-50
2022/05/23 09:02:23;;;;;;;9.13;2.20;;;;;;;35.81;9.53;98239.25;5119340;28;20485;-50
2022/05/23 09:04:58;;;;;;;6.10;2.20;;;;;;;35.93;9.71;98245.38;5116899;28;20177;-47
2022/05/23 09:07:47;;;;;;;6.55;2.75;;;;;;;35.99;9.19;98244.38;5108171;28;20506;-52
2022/05/23 09:10:41;;;;;;;3.95;2.30;;;;;;;35.56;9.44;98238.88;5101778;28;20043;-54
2022/05/23 09:13:15;;;;;;;2.38;2.08;;;;;;;35.70;9.85;98240.19;5089747;28;20043;-49
2022/05/23 09:15:41;;;;;;;3.63;2.10;;;;;;;36.20;9.51;98241.97;5097665;28;20040;-53
2022/05/23 09:18:11;;;;;;;3.13;2.40;;;;;;;36.40;9.25;98229.47;5089863;28;20069;-53
2022/05/23 09:20:43;;;;;;;3.67;3.00;;;;;;;36.61;8.91;98237.81;5089816;28;20050;-51
2022/05/23 09:23:13;;;;;;;2.92;2.25;;;;;;;35.68;9.11;98236.94;5073714;28;20486;-51
2022/05/23 09:25:39;;;;;;;2.90;2.20;;;;;;;36.14;9.53;98230.25;5085070;28;20175;-50
2022/05/23 09:28:20;;;;;;;3.40;2.03;;;;;;;36.82;9.03;98231.56;5105212;28;20046;-53
2022/05/23 09:30:53;;;;;;;3.63;2.70;;;;;;;36.41;9.37;98231.13;5104618;28;20039;-53
2022/05/23 09:33:20;;;;;;;7.15;2.72;;;;;;;36.35;9.19;98234.00;5109039;28;20086;-52
2022/05/23 09:35:46;;;;;;;7.15;2.97;;;;;;;35.58;9.40;98234.88;5101396;28;20092;-49
2022/05/23 09:38:26;;;;;;;6.18;2.20;;;;;;;34.70;9.94;98226.66;5101085;28;20428;-53
2022/05/23 09:49:52;;;;;;;2.65;2.20;;;;;;;34.27;10.25;98224.47;5108925;28;20051;-51
2022/05/23 09:52:39;;;;;;;4.32;2.35;;;;;;;33.33;10.28;98214.81;5102141;28;20035;-52
2022/05/23 09:55:06;;;;;;;5.33;2.40;;;;;;;33.55;10.63;98226.66;5060030;28;20419;-51
2022/05/23 09:57:50;;;;;;;10.23;2.22;;;;;;;34.55;10.63;98210.13;5100037;28;20096;-54
2022/05/23 10:00:22;;;;;;;3.03;2.10;;;;;;;35.59;9.74;98222.19;5112751;28;20195;-57
2022/05/23 10:02:57;;;;;;;4.50;2.08;;;;;;;35.91;9.63;98225.88;5131349;27;20039;-53
2022/05/23 10:05:24;;;;;;;3.30;1.90;;;;;;;36.44;9.57;98225.19;5125233;27;20429;-53
2022/05/23 10:07:54;;;;;;;4.15;1.95;;;;;;;36.87;9.85;98224.28;5124140;27;20043;-50
2022/05/23 10:10:26;;;;;;;4.15;2.25;;;;;;;37.27;8.85;98218.41;5114586;27;20050;-52
2022/05/23 10:13:20;;;;;;;4.10;2.30;;;;;;;36.87;8.88;98193.66;5114051;27;20414;-53
2022/05/23 10:15:54;;;;;;;3.70;2.20;;;;;;;37.27;8.88;98210.25;5114657;28;20074;-51
2022/05/23 10:18:34;;;;;;;5.32;3.13;;;;;;;37.46;8.87;98207.97;5117254;27;20118;-55
2022/05/23 10:21:01;;;;;;;19.70;3.38;;;;;;;37.51;8.89;98208.00;5131087;27;20046;-58
2022/05/23 10:23:33;;;;;;;6.90;2.10;;;;;;;37.40;8.50;98205.47;5133776;27;20043;-55
2022/05/23 10:26:16;;;;;;;3.72;1.90;;;;;;;37.25;8.57;98208.91;5133772;27;20051;-57
2022/05/23 10:28:58;;;;;;;3.20;2.10;;;;;;;37.00;8.79;98217.63;5133514;27;20042;-53
2022/05/23 10:31:37;;;;;;;3.67;2.30;;;;;;;36.51;9.33;98208.75;5132764;27;20055;-57
2022/05/23 10:34:14;;;;;;;2.80;1.92;;;;;;;36.83;9.18;98204.22;5136510;27;20039;-51
2022/05/23 10:36:41;;;;;;;10.63;2.33;;;;;;;37.20;8.98;98198.84;5113595;27;20092;-52
2022/05/23 10:42:15;;;;;;;5.03;2.50;;;;;;;36.95;9.10;98222.19;5123419;27;20047;-55
2022/05/23 10:45:11;;;;;;;4.22;1.90;;;;;;;36.11;8.86;98203.69;5122544;27;20036;-57
2022/05/23 10:47:59;;;;;;;4.53;2.20;;;;;;;34.98;9.40;98204.97;5131430;27;20061;-55
2022/05/23 10:51:00;;;;;;;2.30;1.90;;;;;;;34.55;9.84;98188.53;5137966;27;20082;-47
2022/05/23 10:54:05;;;;;;;6.68;2.17;;;;;;;35.43;9.48;98198.69;5104902;27;20046;-52
2022/05/23 10:57:08;;;;;;;11.38;2.90;;;;;;;35.42;9.56;98199.75;5121333;27;20067;-54
2022/05/23 10:59:54;;;;;;;6.70;2.55;;;;;;;35.31;9.56;98193.38;5134884;27;20048;-51
2022/05/23 11:03:18;;;;;;;9.20;2.40;;;;;;;35.89;9.90;98205.56;5117076;27;20176;-50
2022/05/23 11:05:54;;;;;;;5.65;2.58;;;;;;;36.13;9.36;98198.81;5115496;27;20091;-54
2022/05/23 11:08:42;;;;;;;3.42;2.15;;;;;;;36.06;9.88;98201.69;5120103;27;20070;-50
2022/05/23 11:11:16;;;;;;;3.17;2.47;;;;;;;36.36;9.46;98189.63;5126336;27;20047;-48
2022/05/23 11:14:00;;;;;;;5.80;2.72;;;;;;;36.11;9.55;98192.84;5131861;27;20036;-49
2022/05/23 11:16:35;;;;;;;9.70;2.97;;;;;;;36.71;9.72;98190.00;5121658;27;20468;-49
2022/05/23 11:19:33;;;;;;;11.93;2.72;;;;;;;37.25;9.42;98193.47;5122466;27;20040;-51
2022/05/23 11:22:05;;;;;;;5.45;2.47;;;;;;;35.94;9.47;98197.50;5105623;27;20050;-49
2022/05/23 11:24:55;;;;;;;6.55;2.63;;;;;;;35.41;9.50;98193.53;5144066;27;20485;-50
2022/05/23 11:33:41;;;;;;;6.22;2.35;;;;;;;35.54;9.45;98182.34;5114193;27;20035;-53
2022/05/23 11:36:09;;;;;;;4.30;1.90;;;;;;;35.37;9.65;98189.69;5120827;27;20242;-52
2022/05/23 11:38:44;;;;;;;5.70;2.53;;;;;;;35.73;9.44;98182.91;5113039;27;20422;-55
2022/05/23 11:41:54;;;;;;;7.32;4.30;;;;;;;35.95;9.67;98182.91;5122940;27;20050;-51
2022/05/23 11:44:43;;;;;;;2.55;2.10;;;;;;;36.36;9.53;98186.94;5116832;27;20534;-57
2022/05/23 11:47:11;;;;;;;7.70;2.63;;;;;;;35.89;9.26;98189.34;5121007;27;20418;-51
2022/05/23 11:49:42;;;;;;;7.25;2.42;;;;;;;35.89;9.24;98190.16;5120837;27;20514;-55
2022/05/23 11:52:25;;;;;;;4.72;2.20;;;;;;;36.06;8.93;98190.09;5120253;27;20031;-50
2022/05/23 11:55:00;;;;;;;3.65;2.10;;;;;;;35.99;8.73;98186.75;5117077;27;20122;-51
2022/05/23 11:57:35;;;;;;;5.13;2.67;;;;;;;35.75;8.72;98191.56;5118909;27;20126;-49
2022/05/23 12:00:23;;;;;;;3.35;2.53;;;;;;;35.27;8.78;98200.34;5120580;27;20043;-57
2022/05/23 12:03:11;;;;;;;6.68;2.85;;;;;;;35.44;9.14;98184.91;5125135;27;20053;-57
2022/05/23 12:05:37;;;;;;;3.67;2.40;;;;;;;35.95;8.70;98191.03;5133629;27;20553;-52
2022/05/23 12:08:05;;;;;;;6.32;2.67;;;;;;;35.74;8.87;98198.06;5138636;27;20055;-57
2022/05/23 12:10:37;;;;;;;14.73;4.07;;;;;;;35.58;8.83;98205.13;5140926;27;20050;-50
2022/05/23 12:13:30;;;;;;;7.40;2.20;;;;;;;34.84;8.75;98196.41;5114628;27;20047;-54
2022/05/23 12:16:20;;;;;;;4.38;1.90;;;;;;;34.95;8.78;98183.06;5146241;27;20121;-53
2022/05/23 12:18:48;;;;;;;2.90;2.00;;;;;;;35.02;8.44;98189.91;5133892;27;20049;-56
2022/05/23 12:21:35;;;;;;;7.45;2.80;;;;;;;35.31;8.58;98193.38;5135233;27;20060;-58
2022/05/23 12:24:17;;;;;;;5.85;2.08;;;;;;;35.21;8.66;98179.72;5139170;27;20047;-52
2022/05/23 12:26:50;;;;;;;4.55;1.88;;;;;;;34.75;8.44;98188.94;5131657;27;20079;-55
2022/05/23 12:29:37;;;;;;;14.15;4.20;;;;;;;34.61;9.17;98196.47;5142821;27;20038;-51
2022/05/23 12:32:28;;;;;;;6.55;1.70;;;;;;;34.33;9.13;98200.03;5146443;27;20039;-51
2022/05/23 12:34:56;;;;;;;1.98;1.40;;;;;;;33.69;9.05;98195.72;5140272;27;20035;-53
2022/05/23 12:37:29;;;;;;;6.97;1.92;;;;;;;32.70;9.57;98181.25;5134630;27;20061;-54
2022/05/23 12:40:07;;;;;;;10.43;1.73;;;;;;;31.67;10.56;98193.91;5122620;27;20091;-56
2022/05/23 12:42:35;;;;;;;6.78;1.70;;;;;;;30.25;10.78;98186.50;5136572;27;20531;-52
2022/05/23 12:45:17;;;;;;;2.83;1.60;;;;;;;29.10;11.37;98173.00;5140117;27;20042;-54
2022/05/23 12:48:11;;;;;;;3.88;2.20;;;;;;;28.46;12.30;98156.72;5141728;27;20060;-50
2022/05/23 12:50:45;;;;;;;5.60;1.95;;;;;;;27.72;12.33;98170.00;5139332;27;20035;-54
2022/05/23 12:53:36;;;;;;;6.35;2.78;;;;;;;27.05;12.99;98157.25;5137427;27;20035;-49
2022/05/23 12:56:22;;;;;;;9.38;1.90;;;;;;;26.48;13.30;98168.03;5120920;27;20425;-52
2022/05/23 12:59:20;;;;;;;2.78;1.38;;;;;;;25.84;13.51;98154.59;5107138;27;20492;-53
2022/05/23 13:01:48;;;;;;;3.58;1.95;;;;;;;25.52;13.95;98149.63;5142787;27;20423;-48
2022/05/23 13:04:19;;;;;;;;;;;;;;;25.10;14.10;98140.47;5129097;27;20031;-55
2022/05/23 13:07:00;;;;;;;7.40;1.88;;;;;;;24.51;14.64;98155.41;5142195;27;19923;-54
2022/05/23 13:09:35;;;;;;;3.38;1.45;;;;;;;24.08;14.79;98154.16;5138135;27;20515;-55
2022/05/23 13:12:05;;;;;;;3.75;2.00;;;;;;;23.87;14.93;98143.34;5126076;27;20179;-54
2022/05/23 13:14:57;;;;;;;5.13;2.25;;;;;;;23.78;15.07;98162.97;5124741;27;20070;-54